Time;durP1;ratioP1;P1;durP2;ratioP2;P2;SDS_P1;SDS_P2;PMS_P1;PMS_P2;Temp;Humidity;BMP_temperature;BMP_pressure;BME280_temperature;BME280_humidity;BME280_pressure;Samples;Min_cycle;Max_cycle;Signal;HPM_P1;HPM_P2
2022/01/29 00:02:22;;;;;;;69.25;34.75;;;;;;;;;;6235870;23;20024;-95
2022/01/29 00:04:57;;;;;;;67.28;34.05;;;;;;;;;;6236681;23;20032;-94
2022/01/29 00:07:23;;;;;;;74.55;35.55;;;;;;;;;;6237367;23;20034;-94
2022/01/29 00:09:50;;;;;;;71.25;37.95;;;;;;;;;;6238771;23;20502;-95
2022/01/29 00:12:20;;;;;;;75.88;36.58;;;;;;;;;;6238000;23;20024;-95
2022/01/29 00:14:47;;;;;;;67.38;36.97;;;;;;;;;;6240006;23;20008;-94
2022/01/29 00:21:08;;;;;;;85.93;38.33;;;;;;;;;;6244133;23;19995;-94
2022/01/29 00:23:34;;;;;;;75.85;36.97;;;;;;;;;;6242464;23;20016;-93
2022/01/29 00:26:01;;;;;;;72.28;37.70;;;;;;;;;;6242535;23;20016;-92
2022/01/29 00:28:34;;;;;;;82.80;38.65;;;;;;;;;;6241897;23;20035;-92
2022/01/29 00:31:03;;;;;;;79.05;40.30;;;;;;;;;;6240953;23;20013;-93
2022/01/29 00:33:29;;;;;;;80.88;39.58;;;;;;;;;;6240868;23;20019;-95
2022/01/29 00:35:56;;;;;;;76.40;37.85;;;;;;;;;;6241513;23;20012;-92
2022/01/29 00:38:30;;;;;;;75.30;39.58;;;;;;;;;;6241540;23;20009;-93
2022/01/29 00:40:57;;;;;;;82.75;39.20;;;;;;;;;;6240003;23;20036;-94
2022/01/29 00:43:25;;;;;;;85.80;38.35;;;;;;;;;;6238696;23;20046;-94
2022/01/29 00:45:58;;;;;;;90.05;40.47;;;;;;;;;;6238130;23;20028;-95
2022/01/29 00:48:25;;;;;;;87.28;40.45;;;;;;;;;;6238551;23;20024;-95
2022/01/29 00:50:52;;;;;;;81.57;40.67;;;;;;;;;;6239853;23;20016;-94
2022/01/29 00:53:37;;;;;;;87.18;40.05;;;;;;;;;;6238915;23;20025;-94
2022/01/29 00:56:06;;;;;;;92.38;40.15;;;;;;;;;;6241082;23;20084;-94
2022/01/29 00:58:36;;;;;;;90.75;43.15;;;;;;;;;;6238254;23;20057;-94
2022/01/29 01:01:03;;;;;;;91.18;42.10;;;;;;;;;;6237229;23;20021;-95
2022/01/29 01:03:32;;;;;;;98.97;42.92;;;;;;;;;;6235910;23;20027;-94
2022/01/29 01:06:00;;;;;;;94.65;44.60;;;;;;;;;;6237647;23;20092;-94
2022/01/29 01:08:27;;;;;;;104.05;45.42;;;;;;;;;;6240689;23;20008;-93
2022/01/29 01:10:57;;;;;;;94.60;45.10;;;;;;;;;;6243133;23;20035;-95
2022/01/29 01:13:31;;;;;;;96.40;43.83;;;;;;;;;;6242815;23;20016;-94
2022/01/29 01:16:17;;;;;;;110.53;48.28;;;;;;;;;;6243244;23;20047;-93
2022/01/29 01:18:44;;;;;;;110.83;46.63;;;;;;;;;;6243064;23;20024;-93
2022/01/29 01:21:11;;;;;;;104.22;46.30;;;;;;;;;;6242766;23;20072;-93
2022/01/29 01:23:37;;;;;;;109.53;47.88;;;;;;;;;;6240839;23;20032;-94
2022/01/29 01:26:08;;;;;;;107.68;48.28;;;;;;;;;;6239293;23;20075;-94
2022/01/29 01:28:38;;;;;;;111.63;49.58;;;;;;;;;;6238437;23;20023;-94
2022/01/29 01:31:05;;;;;;;113.50;46.95;;;;;;;;;;6241166;23;20023;-93
2022/01/29 01:37:07;;;;;;;122.93;50.50;;;;;;;;;;6236669;23;20051;-93
2022/01/29 01:39:36;;;;;;;118.30;50.70;;;;;;;;;;6235908;23;20021;-93
2022/01/29 01:42:07;;;;;;;109.22;48.70;;;;;;;;;;6238769;23;20035;-93
2022/01/29 01:45:03;;;;;;;121.63;51.70;;;;;;;;;;6240228;23;20046;-94
2022/01/29 01:47:30;;;;;;;105.28;46.50;;;;;;;;;;6242130;23;20039;-92
2022/01/29 01:49:57;;;;;;;126.45;50.90;;;;;;;;;;6243346;23;20023;-94
2022/01/29 01:59:24;;;;;;;127.90;52.10;;;;;;;;;;6244473;23;20035;-93
2022/01/29 02:01:52;;;;;;;115.80;51.58;;;;;;;;;;6243806;23;20068;-94
2022/01/29 02:04:33;;;;;;;118.13;50.13;;;;;;;;;;6241116;23;20012;-93
2022/01/29 02:07:03;;;;;;;122.60;52.75;;;;;;;;;;6244103;23;20015;-93
2022/01/29 02:13:32;;;;;;;119.60;50.85;;;;;;;;;;6244914;23;20046;-93
2022/01/29 02:16:05;;;;;;;125.85;52.35;;;;;;;;;;6243998;23;20025;-93
2022/01/29 02:18:34;;;;;;;126.03;51.95;;;;;;;;;;6244032;23;20076;-93
2022/01/29 02:21:02;;;;;;;120.93;50.47;;;;;;;;;;6243860;23;20036;-94
2022/01/29 02:23:42;;;;;;;117.97;50.20;;;;;;;;;;6239475;23;20035;-94
2022/01/29 02:26:14;;;;;;;118.57;51.92;;;;;;;;;;6244255;23;20075;-92
2022/01/29 02:32:50;;;;;;;112.50;50.75;;;;;;;;;;6245015;23;20019;-92
2022/01/29 02:35:19;;;;;;;122.45;52.95;;;;;;;;;;6243758;23;20040;-94
2022/01/29 02:37:51;;;;;;;119.82;50.72;;;;;;;;;;6243024;23;20032;-96
2022/01/29 02:40:19;;;;;;;117.30;51.10;;;;;;;;;;6243689;23;20008;-95
2022/01/29 02:42:55;;;;;;;135.55;55.50;;;;;;;;;;6243773;23;20023;-93
2022/01/29 02:45:40;;;;;;;119.38;52.08;;;;;;;;;;6239896;23;20008;-94
2022/01/29 02:48:08;;;;;;;117.97;50.72;;;;;;;;;;6243673;23;20012;-93
2022/01/29 02:50:37;;;;;;;127.50;54.83;;;;;;;;;;6243742;23;20001;-94
2022/01/29 02:53:28;;;;;;;124.68;51.58;;;;;;;;;;6241743;23;20044;-95
2022/01/29 02:56:10;;;;;;;112.50;51.47;;;;;;;;;;6239565;23;20025;-94
2022/01/29 02:58:51;;;;;;;124.50;51.03;;;;;;;;;;6242902;23;20047;-93
2022/01/29 03:01:31;;;;;;;123.75;53.97;;;;;;;;;;6242320;23;20016;-93
2022/01/29 03:04:11;;;;;;;112.60;52.20;;;;;;;;;;6239354;23;20013;-94
2022/01/29 03:06:52;;;;;;;110.07;51.42;;;;;;;;;;6239190;23;20015;-93
2022/01/29 03:09:38;;;;;;;111.93;50.78;;;;;;;;;;6244047;23;20015;-95
2022/01/29 03:12:19;;;;;;;114.97;50.33;;;;;;;;;;6240870;23;20012;-94
2022/01/29 03:14:59;;;;;;;121.53;50.97;;;;;;;;;;6243849;23;20017;-93
2022/01/29 03:17:49;;;;;;;116.63;52.17;;;;;;;;;;6243539;23;20016;-92
2022/01/29 03:20:30;;;;;;;101.53;48.15;;;;;;;;;;6243552;23;20012;-93
2022/01/29 03:23:12;;;;;;;103.22;46.78;;;;;;;;;;6241095;23;20008;-93
2022/01/29 03:26:27;;;;;;;106.60;47.03;;;;;;;;;;6243407;23;20016;-93
2022/01/29 03:29:07;;;;;;;100.20;46.42;;;;;;;;;;6241790;23;20008;-92
2022/01/29 03:31:48;;;;;;;96.85;46.10;;;;;;;;;;6243021;23;20013;-91
2022/01/29 03:34:20;;;;;;;97.57;45.83;;;;;;;;;;6243876;23;20035;-95
2022/01/29 03:37:01;;;;;;;100.00;46.22;;;;;;;;;;6241568;23;20032;-93
2022/01/29 03:40:13;;;;;;;96.45;45.47;;;;;;;;;;6241628;23;20012;-93
2022/01/29 03:43:04;;;;;;;96.35;45.33;;;;;;;;;;6242945;23;20032;-92
2022/01/29 03:46:06;;;;;;;94.97;44.28;;;;;;;;;;6241377;23;20056;-94
2022/01/29 03:48:47;;;;;;;90.13;44.60;;;;;;;;;;6242714;23;20001;-94
2022/01/29 03:54:50;;;;;;;93.43;42.47;;;;;;;;;;6244626;23;20032;-92
2022/01/29 03:57:19;;;;;;;86.70;40.65;;;;;;;;;;6243441;23;20067;-93
2022/01/29 04:00:02;;;;;;;85.55;40.63;;;;;;;;;;6242084;23;20016;-93
2022/01/29 04:02:49;;;;;;;91.32;42.63;;;;;;;;;;6243432;23;20008;-93
2022/01/29 04:05:20;;;;;;;;;;;;;;;;;;6243940;23;20016;-93
2022/01/29 04:07:47;;;;;;;87.32;41.22;;;;;;;;;;6243109;23;19900;-94
2022/01/29 04:10:19;;;;;;;89.13;42.55;;;;;;;;;;6243150;23;20009;-94
2022/01/29 04:12:59;;;;;;;92.70;45.13;;;;;;;;;;6237172;23;20009;-94
2022/01/29 04:22:53;;;;;;;102.03;45.83;;;;;;;;;;6244259;23;20019;-93
2022/01/29 04:25:23;;;;;;;87.97;42.55;;;;;;;;;;6243090;23;20012;-93
2022/01/29 04:27:58;;;;;;;93.50;42.55;;;;;;;;;;6241499;23;20012;-93
2022/01/29 04:31:24;;;;;;;89.95;42.90;;;;;;;;;;6243122;23;20013;-93
2022/01/29 04:33:51;;;;;;;93.65;44.13;;;;;;;;;;6243616;23;20009;-92
2022/01/29 04:36:32;;;;;;;84.20;40.53;;;;;;;;;;6241475;23;20009;-93
2022/01/29 04:39:00;;;;;;;94.43;42.83;;;;;;;;;;6243176;23;20016;-93
2022/01/29 04:41:27;;;;;;;91.07;42.85;;;;;;;;;;6243013;23;20012;-94
2022/01/29 04:47:32;;;;;;;97.55;42.53;;;;;;;;;;6243991;23;20016;-93
2022/01/29 04:50:04;;;;;;;100.15;45.22;;;;;;;;;;6243397;23;20015;-94
2022/01/29 04:59:31;;;;;;;92.88;45.45;;;;;;;;;;6243425;23;20027;-94
2022/01/29 05:01:58;;;;;;;94.13;44.47;;;;;;;;;;6242988;23;20011;-93
2022/01/29 05:04:26;;;;;;;98.82;43.22;;;;;;;;;;6242588;23;20009;-94
2022/01/29 05:06:52;;;;;;;100.57;43.67;;;;;;;;;;6242912;23;20094;-94
2022/01/29 05:09:19;;;;;;;98.07;44.38;;;;;;;;;;6242822;23;20020;-93
2022/01/29 05:11:51;;;;;;;97.68;45.05;;;;;;;;;;6242793;23;20008;-93
2022/01/29 05:14:29;;;;;;;96.20;45.15;;;;;;;;;;6243122;23;20009;-93
2022/01/29 05:27:42;;;;;;;94.40;43.35;;;;;;;;;;6256294;22;20070;-92
2022/01/29 05:30:11;;;;;;;100.95;45.45;;;;;;;;;;6248705;22;20043;-94
2022/01/29 05:36:09;;;;;;;100.07;44.30;;;;;;;;;;6273860;22;20044;-94
2022/01/29 05:38:36;;;;;;;89.28;43.60;;;;;;;;;;6248095;22;20083;-93
2022/01/29 05:41:04;;;;;;;88.78;41.95;;;;;;;;;;6248272;22;20008;-93
2022/01/29 05:46:52;;;;;;;86.45;40.05;;;;;;;;;;6225605;22;20054;-93
2022/01/29 05:49:22;;;;;;;91.75;41.88;;;;;;;;;;6216554;22;20064;-93
2022/01/29 05:51:48;;;;;;;86.05;39.65;;;;;;;;;;6217043;22;20021;-92
2022/01/29 05:54:16;;;;;;;86.28;39.80;;;;;;;;;;6217964;22;20031;-93
2022/01/29 05:56:42;;;;;;;91.88;39.72;;;;;;;;;;6218015;22;20016;-94
2022/01/29 05:59:10;;;;;;;93.20;41.85;;;;;;;;;;6218463;22;20060;-93
2022/01/29 06:01:41;;;;;;;87.88;40.75;;;;;;;;;;6217819;22;20068;-93
2022/01/29 06:04:28;;;;;;;85.72;38.70;;;;;;;;;;6220235;22;20012;-94
2022/01/29 06:06:56;;;;;;;91.65;39.85;;;;;;;;;;6218539;22;20043;-93
2022/01/29 06:13:13;;;;;;;84.40;38.05;;;;;;;;;;6244727;22;20076;-93
2022/01/29 06:15:42;;;;;;;79.10;36.92;;;;;;;;;;6218099;22;20016;-93
2022/01/29 06:18:15;;;;;;;90.20;38.35;;;;;;;;;;6218711;22;20044;-91
2022/01/29 06:20:43;;;;;;;81.03;37.63;;;;;;;;;;6218610;22;20008;-93
2022/01/29 06:23:52;;;;;;;77.78;36.67;;;;;;;;;;6219366;22;20008;-92
2022/01/29 06:26:26;;;;;;;84.00;40.15;;;;;;;;;;6219514;22;20016;-93
2022/01/29 06:28:53;;;;;;;85.63;38.03;;;;;;;;;;6218696;22;20012;-91
2022/01/29 06:31:20;;;;;;;84.38;37.65;;;;;;;;;;6218726;22;20015;-93
2022/01/29 06:33:47;;;;;;;89.53;39.97;;;;;;;;;;6219093;22;20028;-93
2022/01/29 06:36:19;;;;;;;82.18;40.30;;;;;;;;;;6220430;22;20047;-94
2022/01/29 06:38:47;;;;;;;80.22;38.85;;;;;;;;;;6219346;22;20004;-93
2022/01/29 06:44:48;;;;;;;79.70;39.03;;;;;;;;;;6244937;22;20027;-93
2022/01/29 06:47:15;;;;;;;79.53;36.47;;;;;;;;;;6213053;23;20064;-93
2022/01/29 06:49:44;;;;;;;78.03;38.42;;;;;;;;;;6213155;23;20005;-93
2022/01/29 06:52:18;;;;;;;81.95;39.72;;;;;;;;;;6213582;23;20036;-93
2022/01/29 06:58:26;;;;;;;70.22;35.20;;;;;;;;;;6214540;23;20044;-94
2022/01/29 07:01:07;;;;;;;63.55;32.53;;;;;;;;;;6213512;23;20036;-93
2022/01/29 07:03:39;;;;;;;62.35;32.90;;;;;;;;;;6213579;23;20024;-92
2022/01/29 07:06:07;;;;;;;62.25;32.45;;;;;;;;;;6213811;23;20044;-94
2022/01/29 07:08:48;;;;;;;60.42;31.17;;;;;;;;;;6213146;23;20008;-92
2022/01/29 07:11:29;;;;;;;57.13;31.73;;;;;;;;;;6214463;23;20021;-92
2022/01/29 07:14:17;;;;;;;58.90;30.35;;;;;;;;;;6212878;23;20101;-93
2022/01/29 07:17:00;;;;;;;56.17;30.73;;;;;;;;;;6212969;23;20009;-93
2022/01/29 07:26:25;;;;;;;48.97;27.90;;;;;;;;;;6214915;23;20016;-92
2022/01/29 07:29:06;;;;;;;49.20;25.48;;;;;;;;;;6212908;23;20001;-90
2022/01/29 07:31:46;;;;;;;51.40;28.15;;;;;;;;;;6210783;23;20063;-91
2022/01/29 07:34:20;;;;;;;44.97;24.85;;;;;;;;;;6213736;23;20017;-92
2022/01/29 07:36:57;;;;;;;44.10;25.45;;;;;;;;;;6213661;23;20069;-91
2022/01/29 07:50:22;;;;;;;36.15;22.80;;;;;;;;;;6211162;23;20051;-90
2022/01/29 07:52:49;;;;;;;45.00;25.85;;;;;;;;;;6182790;23;20036;-93
2022/01/29 07:55:16;;;;;;;36.70;23.20;;;;;;;;;;6182675;23;20025;-93
2022/01/29 08:18:33;;;;;;;39.95;23.25;;;;;;;;;;6184043;23;19999;-91
2022/01/29 08:21:02;;;;;;;33.90;20.25;;;;;;;;;;6183190;23;20009;-93
2022/01/29 08:23:29;;;;;;;32.30;20.67;;;;;;;;;;6183114;23;20069;-93
2022/01/29 08:29:32;;;;;;;29.67;19.27;;;;;;;;;;6184207;23;19996;-93
2022/01/29 08:32:14;;;;;;;34.00;19.67;;;;;;;;;;6182841;23;20017;-93
2022/01/29 08:41:31;;;;;;;31.77;19.58;;;;;;;;;;6183175;23;20025;-92
2022/01/29 08:43:58;;;;;;;29.98;18.92;;;;;;;;;;6158385;22;20021;-94
2022/01/29 08:46:29;;;;;;;30.63;19.52;;;;;;;;;;6219210;22;20008;-93
2022/01/29 08:49:09;;;;;;;27.83;17.10;;;;;;;;;;6221106;22;20032;-94
2022/01/29 08:55:00;;;;;;;29.48;17.55;;;;;;;;;;6243958;22;20039;-93
2022/01/29 08:57:41;;;;;;;27.30;17.20;;;;;;;;;;6215569;22;20068;-92
2022/01/29 09:00:09;;;;;;;27.63;17.25;;;;;;;;;;6218461;22;20009;-92
2022/01/29 09:06:00;;;;;;;31.75;18.42;;;;;;;;;;6243887;22;19995;-92
2022/01/29 09:08:36;;;;;;;30.30;17.90;;;;;;;;;;6220042;22;20060;-93
2022/01/29 09:11:07;;;;;;;28.08;18.05;;;;;;;;;;6219039;22;20032;-93
2022/01/29 09:13:35;;;;;;;29.02;17.70;;;;;;;;;;6218686;22;20008;-92
2022/01/29 09:16:02;;;;;;;30.67;18.50;;;;;;;;;;6218235;22;20024;-90
2022/01/29 09:18:30;;;;;;;32.75;17.35;;;;;;;;;;6218295;22;20009;-92
2022/01/29 09:20:58;;;;;;;27.85;15.18;;;;;;;;;;6243656;22;20012;-91
2022/01/29 09:23:33;;;;;;;28.77;17.73;;;;;;;;;;6220179;22;20056;-92
2022/01/29 09:26:14;;;;;;;25.63;16.35;;;;;;;;;;6221483;22;20023;-93
2022/01/29 09:28:41;;;;;;;27.10;15.60;;;;;;;;;;6220348;22;20028;-94
2022/01/29 09:31:17;;;;;;;30.63;16.52;;;;;;;;;;6245739;22;20008;-94
2022/01/29 09:33:44;;;;;;;28.40;16.02;;;;;;;;;;6220096;22;20032;-93
2022/01/29 09:36:15;;;;;;;25.88;14.25;;;;;;;;;;6220864;22;20040;-93
2022/01/29 10:46:47;;;;;;;15.63;11.23;;;;;;;;;;6236000;22;19899;-94
2022/01/29 10:49:25;;;;;;;18.92;12.70;;;;;;;;;;6218982;22;20004;-94
2022/01/29 10:52:03;;;;;;;17.83;13.32;;;;;;;;;;6220427;22;20032;-95
2022/01/29 11:01:33;;;;;;;21.67;13.23;;;;;;;;;;6244698;22;20027;-93
2022/01/29 11:04:07;;;;;;;14.13;10.00;;;;;;;;;;6218591;22;20031;-93
2022/01/29 11:06:39;;;;;;;14.52;10.27;;;;;;;;;;6219022;22;20008;-90
2022/01/29 11:09:06;;;;;;;15.05;10.63;;;;;;;;;;6244724;22;20009;-93
2022/01/29 11:11:39;;;;;;;20.48;11.00;;;;;;;;;;6219801;22;20009;-94
2022/01/29 11:35:57;;;;;;;19.70;9.02;;;;;;;;;;6192203;22;24047;-93
2022/01/29 11:38:32;;;;;;;14.18;8.90;;;;;;;;;;6218561;22;20015;-93
2022/01/29 11:41:03;;;;;;;10.98;7.60;;;;;;;;;;6219758;22;20016;-90
2022/01/29 11:43:34;;;;;;;14.95;8.43;;;;;;;;;;6218452;22;20084;-93
2022/01/29 11:46:30;;;;;;;13.73;7.63;;;;;;;;;;6218335;22;20012;-95
2022/01/29 11:49:15;;;;;;;14.23;8.43;;;;;;;;;;6217718;22;20020;-94
2022/01/29 11:51:48;;;;;;;11.10;7.05;;;;;;;;;;6218194;22;20008;-93
2022/01/29 11:54:26;;;;;;;13.18;7.18;;;;;;;;;;6217477;22;20043;-95
2022/01/29 11:57:07;;;;;;;12.00;7.28;;;;;;;;;;6217771;22;20027;-95
2022/01/29 11:59:34;;;;;;;12.05;6.10;;;;;;;;;;6217816;22;20023;-93
2022/01/29 12:02:05;;;;;;;9.13;6.05;;;;;;;;;;6243507;22;20060;-93
2022/01/29 12:05:11;;;;;;;10.68;5.35;;;;;;;;;;6218529;22;20009;-93
2022/01/29 12:07:57;;;;;;;10.75;4.95;;;;;;;;;;6218190;22;20012;-95
2022/01/29 12:10:25;;;;;;;;;;;;;;;;;;6218577;22;20016;-94
2022/01/29 12:13:08;;;;;;;11.02;4.28;;;;;;;;;;6218443;22;19947;-94
2022/01/29 12:15:40;;;;;;;8.43;4.85;;;;;;;;;;6219420;22;20005;-94
2022/01/29 12:18:25;;;;;;;9.98;4.10;;;;;;;;;;6218625;22;20060;-94
2022/01/29 12:27:55;;;;;;;12.20;3.75;;;;;;;;;;6244066;22;19999;-91
2022/01/29 12:30:23;;;;;;;;;;;;;;;;;;6219102;22;20008;-93
2022/01/29 12:32:59;;;;;;;12.10;3.70;;;;;;;;;;6218701;22;19899;-92
2022/01/29 12:35:49;;;;;;;10.13;3.75;;;;;;;;;;6219187;22;20024;-93
2022/01/29 13:45:49;;;;;;;6.65;1.90;;;;;;;;;;6243058;22;20052;-94
2022/01/29 13:48:17;;;;;;;11.30;2.20;;;;;;;;;;6220320;22;20009;-92
2022/01/29 13:59:18;;;;;;;9.80;2.27;;;;;;;;;;6209805;22;20007;-94
2022/01/29 14:01:58;;;;;;;12.20;2.50;;;;;;;;;;6218469;22;20005;-94
2022/01/29 14:14:38;;;;;;;10.73;2.47;;;;;;;;;;6233896;22;20047;-93
2022/01/29 14:17:07;;;;;;;7.90;2.33;;;;;;;;;;6219422;22;20011;-93
2022/01/29 14:26:23;;;;;;;8.43;2.58;;;;;;;;;;6244550;22;20003;-93
2022/01/29 14:28:53;;;;;;;9.63;2.20;;;;;;;;;;6219514;22;20067;-93
2022/01/29 14:31:20;;;;;;;7.75;2.15;;;;;;;;;;6219075;22;20016;-93
2022/01/29 14:44:05;;;;;;;14.43;3.53;;;;;;;;;;6244333;22;20048;-92
2022/01/29 14:46:32;;;;;;;13.95;1.73;;;;;;;;;;6219116;22;20005;-93
2022/01/29 14:49:01;;;;;;;13.85;2.58;;;;;;;;;;6218931;22;20017;-91
2022/01/29 15:01:56;;;;;;;12.90;2.28;;;;;;;;;;6244872;22;19995;-92
2022/01/29 15:04:25;;;;;;;6.47;1.50;;;;;;;;;;6219220;22;20015;-93
2022/01/29 15:46:47;;;;;;;8.35;1.45;;;;;;;;;;6154773;23;20029;-94
2022/01/29 15:49:14;;;;;;;17.77;2.38;;;;;;;;;;6178586;23;20013;-92
2022/01/29 15:51:42;;;;;;;13.02;2.15;;;;;;;;;;6178582;23;20012;-93
2022/01/29 16:14:23;;;;;;;13.48;2.33;;;;;;;;;;6169812;23;20015;-93
2022/01/29 16:16:58;;;;;;;15.98;1.95;;;;;;;;;;6189643;23;20005;-93
2022/01/29 16:22:47;;;;;;;24.27;2.38;;;;;;;;;;6213973;23;20012;-91
2022/01/29 16:25:15;;;;;;;18.65;3.45;;;;;;;;;;6188794;23;20005;-92
2022/01/29 16:27:58;;;;;;;20.67;3.42;;;;;;;;;;6190876;23;20123;-91
2022/01/29 16:30:45;;;;;;;27.95;3.78;;;;;;;;;;6073558;23;20021;-93
2022/01/29 16:33:22;;;;;;;20.25;3.60;;;;;;;;;;6073043;23;20026;-95
2022/01/29 16:35:50;;;;;;;18.70;2.65;;;;;;;;;;6070753;23;20007;-94
2022/01/29 16:38:31;;;;;;;24.55;4.00;;;;;;;;;;6072215;23;20023;-95
2022/01/29 16:41:02;;;;;;;27.77;3.88;;;;;;;;;;6071820;23;20017;-93
2022/01/29 16:53:48;;;;;;;18.13;3.97;;;;;;;;;;6095145;23;20017;-94
2022/01/29 16:56:29;;;;;;;33.60;4.35;;;;;;;;;;6071053;23;20071;-94
2022/01/29 17:05:51;;;;;;;32.88;4.07;;;;;;;;;;6214017;23;20012;-92
2022/01/29 17:08:32;;;;;;;31.90;4.75;;;;;;;;;;6190191;23;20001;-93
2022/01/29 17:11:17;;;;;;;41.60;4.97;;;;;;;;;;6190172;23;20008;-93
2022/01/29 17:13:59;;;;;;;;;;;;;;;;;;6188905;23;20012;-93
2022/01/29 17:16:45;;;;;;;38.92;5.80;;;;;;;;;;6211920;23;19905;-92
2022/01/29 17:19:29;;;;;;;21.73;4.32;;;;;;;;;;6189495;23;20009;-93
2022/01/29 18:18:10;;;;;;;52.05;7.82;;;;;;;;;;6129284;23;20417;31
2022/01/29 18:20:44;;;;;;;37.38;6.93;;;;;;;;;;6182910;23;20053;-93
2022/01/29 18:23:14;;;;;;;47.85;6.30;;;;;;;;;;6160572;23;20009;-93
2022/01/29 18:39:13;;;;;;;34.25;6.57;;;;;;;;;;6185030;23;20008;-93
2022/01/29 18:41:43;;;;;;;51.10;7.53;;;;;;;;;;6160475;23;20061;-93
2022/01/29 18:44:14;;;;;;;48.97;7.60;;;;;;;;;;6160699;23;20029;-92
2022/01/29 18:46:43;;;;;;;45.58;7.03;;;;;;;;;;6160291;23;20006;-92
2022/01/29 18:49:12;;;;;;;43.30;7.03;;;;;;;;;;6160276;23;20032;-92
2022/01/29 18:51:39;;;;;;;49.25;7.45;;;;;;;;;;6159852;23;20030;-93
2022/01/29 18:54:07;;;;;;;42.35;6.25;;;;;;;;;;6160271;23;20125;-92
2022/01/29 18:56:35;;;;;;;59.55;7.85;;;;;;;;;;6159850;23;20053;-93
2022/01/29 18:59:18;;;;;;;43.70;6.07;;;;;;;;;;6161814;23;20020;-93
2022/01/29 19:25:42;;;;;;;41.90;6.93;;;;;;;;;;6170913;23;19996;-94
2022/01/29 19:28:12;;;;;;;51.97;6.75;;;;;;;;;;6220574;23;20012;-95
2022/01/29 19:57:02;;;;;;;42.28;6.30;;;;;;;;;;6244206;23;20180;-93
2022/01/29 19:59:29;;;;;;;48.67;6.47;;;;;;;;;;6243857;23;20011;-92
2022/01/29 20:01:59;;;;;;;52.75;6.28;;;;;;;;;;6243827;23;20068;-92
2022/01/29 20:27:05;;;;;;;47.63;8.50;;;;;;;;;;6274741;22;20063;-93
2022/01/29 20:29:33;;;;;;;43.55;5.20;;;;;;;;;;6249235;22;20004;-92
2022/01/29 20:32:03;;;;;;;45.53;6.13;;;;;;;;;;6249628;22;20008;-94
2022/01/29 20:54:50;;;;;;;44.72;6.25;;;;;;;;;;6274124;22;20055;-92
2022/01/29 20:57:26;;;;;;;32.42;5.57;;;;;;;;;;6250740;22;20004;-93
2022/01/29 20:59:53;;;;;;;39.05;5.35;;;;;;;;;;6248960;22;20031;-93
2022/01/29 21:02:30;;;;;;;46.28;5.32;;;;;;;;;;6249004;22;20004;-93
2022/01/29 21:04:58;;;;;;;41.53;5.75;;;;;;;;;;6249098;22;20020;-93
2022/01/29 21:07:29;;;;;;;42.63;6.25;;;;;;;;;;6248990;22;20004;-93
2022/01/29 21:09:56;;;;;;;34.72;5.63;;;;;;;;;;6248644;22;20009;-93
2022/01/29 21:16:29;;;;;;;43.60;5.72;;;;;;;;;;6274150;22;19996;-94
2022/01/29 21:18:57;;;;;;;44.33;5.63;;;;;;;;;;6248226;22;20008;-94
2022/01/29 21:21:25;;;;;;;38.75;5.00;;;;;;;;;;6249239;22;20034;-94
2022/01/29 21:30:46;;;;;;;33.70;5.38;;;;;;;;;;6276829;22;20018;-95
2022/01/29 21:33:16;;;;;;;39.88;4.88;;;;;;;;;;6250963;22;20008;-94
2022/01/29 21:35:42;;;;;;;38.60;5.72;;;;;;;;;;6250474;22;20032;-94
2022/01/29 22:02:29;;;;;;;37.17;6.38;;;;;;;;;;6267943;22;20047;-94
2022/01/29 22:04:56;;;;;;;39.92;7.53;;;;;;;;;;6250616;22;20030;-91
2022/01/29 22:07:39;;;;;;;39.75;5.50;;;;;;;;;;6251782;22;20015;-91
2022/01/29 22:10:08;;;;;;;37.78;6.25;;;;;;;;;;6276106;22;20136;-94
2022/01/29 22:12:39;;;;;;;43.30;6.00;;;;;;;;;;6251216;22;20020;-93
2022/01/29 22:15:06;;;;;;;40.63;6.43;;;;;;;;;;6250383;22;20055;-93
2022/01/29 22:17:44;;;;;;;34.88;5.10;;;;;;;;;;6252654;22;20027;-93
2022/01/29 22:20:12;;;;;;;44.17;5.85;;;;;;;;;;6250192;22;20024;-93
2022/01/29 22:22:39;;;;;;;28.70;5.68;;;;;;;;;;6250074;22;20028;-92
2022/01/29 22:25:08;;;;;;;43.95;5.45;;;;;;;;;;6248606;22;20012;-94
2022/01/29 22:27:36;;;;;;;40.45;5.82;;;;;;;;;;6250266;22;20057;-93
2022/01/29 22:30:04;;;;;;;45.47;8.15;;;;;;;;;;6250305;22;20018;-93
2022/01/29 22:32:37;;;;;;;42.92;5.65;;;;;;;;;;6250210;22;20056;-93
2022/01/29 22:35:04;;;;;;;46.25;5.93;;;;;;;;;;6249641;22;20014;-93
2022/01/29 22:37:32;;;;;;;39.33;5.05;;;;;;;;;;6249916;22;20059;-93
2022/01/29 22:40:00;;;;;;;42.00;6.28;;;;;;;;;;6250104;22;20028;-92
2022/01/29 22:42:27;;;;;;;35.88;5.05;;;;;;;;;;6249734;22;20016;-92
2022/01/29 22:44:55;;;;;;;48.28;7.55;;;;;;;;;;6249839;22;20008;-94
2022/01/29 22:47:39;;;;;;;35.63;6.65;;;;;;;;;;6250777;22;20060;-92
2022/01/29 22:50:06;;;;;;;38.05;5.30;;;;;;;;;;6249680;22;20030;-92
2022/01/29 22:52:33;;;;;;;45.08;5.75;;;;;;;;;;6249579;22;20014;-91
2022/01/29 22:55:09;;;;;;;;;;;;;;;;;;6252121;22;20038;-93
2022/01/29 22:57:37;;;;;;;33.83;5.63;;;;;;;;;;6249933;22;19919;-93
2022/01/29 23:00:07;;;;;;;35.67;6.22;;;;;;;;;;6249764;22;20015;-94
2022/01/29 23:02:34;;;;;;;32.88;5.13;;;;;;;;;;6244201;23;20068;-93
2022/01/29 23:05:01;;;;;;;31.88;4.55;;;;;;;;;;6244368;23;20005;-94
2022/01/29 23:07:36;;;;;;;36.40;6.45;;;;;;;;;;6244220;23;20020;-94
2022/01/29 23:10:11;;;;;;;41.85;5.25;;;;;;;;;;6244071;23;20008;-92
2022/01/29 23:16:20;;;;;;;32.90;5.10;;;;;;;;;;6244969;23;20056;-93
2022/01/29 23:18:47;;;;;;;41.42;6.80;;;;;;;;;;6244191;23;20009;-92
2022/01/29 23:37:34;;;;;;;40.13;6.13;;;;;;;;;;6244583;23;20019;-92
2022/01/29 23:40:12;;;;;;;52.22;6.43;;;;;;;;;;6243863;23;20004;-93
2022/01/29 23:42:55;;;;;;;31.35;4.68;;;;;;;;;;6243593;23;20076;-94
